createdAt,value
2022-10-13T00:02:32.125Z,3.48
2022-10-13T00:06:33.970Z,3.41
2022-10-13T00:10:38.406Z,3.36
2022-10-13T00:14:41.733Z,3.40
2022-10-13T00:18:45.286Z,3.42
2022-10-13T00:22:47.163Z,3.41
2022-10-13T00:26:50.175Z,3.41
2022-10-13T00:30:53.996Z,3.44
2022-10-13T00:34:57.236Z,3.44
2022-10-13T00:38:59.120Z,3.42
2022-10-13T00:43:01.016Z,3.29
2022-10-13T00:47:02.979Z,3.16
2022-10-13T00:51:07.423Z,3.05
2022-10-13T00:55:13.188Z,2.96
2022-10-13T00:59:23.721Z,2.90
2022-10-13T01:03:28.329Z,2.86
2022-10-13T01:07:31.217Z,2.86
2022-10-13T01:11:46.329Z,2.89
2022-10-13T01:15:57.612Z,2.85
2022-10-13T01:19:59.371Z,2.73
2022-10-13T01:24:32.430Z,2.67
2022-10-13T01:28:52.847Z,2.69
2022-10-13T01:33:16.045Z,2.69
2022-10-13T01:38:00.333Z,2.71
2022-10-13T01:42:12.875Z,2.75
2022-10-13T01:46:34.617Z,2.73
2022-10-13T01:50:38.348Z,2.75
2022-10-13T01:54:40.406Z,2.75
2022-10-13T01:58:42.809Z,2.69
2022-10-13T02:02:48.173Z,2.57
2022-10-13T02:07:09.386Z,2.49
2022-10-13T02:11:17.049Z,2.41
2022-10-13T02:15:23.132Z,2.30
2022-10-13T02:19:25.613Z,2.18
2022-10-13T02:23:28.441Z,2.19
2022-10-13T02:27:30.372Z,2.22
2022-10-13T02:31:32.293Z,2.17
2022-10-13T02:35:34.466Z,2.14
2022-10-13T02:39:37.082Z,2.07
2022-10-13T02:43:39.042Z,2.02
2022-10-13T02:47:40.984Z,2.04
2022-10-13T02:51:42.775Z,2.04
2022-10-13T02:55:44.637Z,2.02
2022-10-13T02:59:46.494Z,2.08
2022-10-13T03:03:48.382Z,2.15
2022-10-13T03:07:50.212Z,2.14
2022-10-13T03:11:52.040Z,2.13
2022-10-13T03:15:53.899Z,2.10
2022-10-13T03:19:55.798Z,2.04
2022-10-13T03:23:57.672Z,2.01
2022-10-13T03:28:00.856Z,1.96
2022-10-13T03:32:03.006Z,1.94
2022-10-13T03:36:05.628Z,1.91
2022-10-13T03:40:08.416Z,1.73
2022-10-13T03:44:15.302Z,1.70
2022-10-13T03:48:17.199Z,1.75
2022-10-13T03:52:19.221Z,1.75
2022-10-13T03:56:24.701Z,1.66
2022-10-13T04:00:26.956Z,1.55
2022-10-13T04:04:28.749Z,1.51
2022-10-13T04:08:32.768Z,1.42
2022-10-13T04:12:34.825Z,1.35
2022-10-13T04:16:39.209Z,1.36
2022-10-13T04:20:41.576Z,1.36
2022-10-13T04:24:43.576Z,1.33
2022-10-13T04:28:47.468Z,1.37
2022-10-13T04:32:49.340Z,1.40
2022-10-13T04:36:52.761Z,1.43
2022-10-13T04:40:54.548Z,1.49
2022-10-13T04:44:56.446Z,1.56
2022-10-13T04:48:59.340Z,1.52
2022-10-13T04:53:07.106Z,1.44
2022-10-13T04:57:08.932Z,1.41
2022-10-13T05:01:17.669Z,1.39
2022-10-13T05:05:23.141Z,1.41
2022-10-13T05:09:25.233Z,1.46
2022-10-13T05:13:29.164Z,1.54
2022-10-13T05:17:35.258Z,1.66
2022-10-13T05:21:42.587Z,1.78
2022-10-13T05:25:44.679Z,1.82
2022-10-13T05:29:47.869Z,1.85
2022-10-13T05:33:51.652Z,1.94
2022-10-13T05:37:57.322Z,2.03
2022-10-13T05:41:59.171Z,2.15
2022-10-13T05:46:01.632Z,2.23
2022-10-13T05:50:04.936Z,2.29
2022-10-13T05:54:12.920Z,2.41
2022-10-13T05:58:15.293Z,2.53
2022-10-13T06:02:21.692Z,2.67
2022-10-13T06:06:27.915Z,2.84
2022-10-13T06:10:33.191Z,2.98
2022-10-13T06:14:35.578Z,3.09
2022-10-13T06:18:41.073Z,3.23
2022-10-13T06:22:43.009Z,3.38
2022-10-13T06:26:44.914Z,3.57
2022-10-13T06:30:53.063Z,3.78
2022-10-13T06:34:55.871Z,3.95
2022-10-13T06:38:57.741Z,4.11
2022-10-13T06:42:59.917Z,4.32
2022-10-13T06:47:03.281Z,4.56
2022-10-13T06:51:10.176Z,4.81
2022-10-13T06:55:12.185Z,5.02
2022-10-13T06:59:14.156Z,5.29
2022-10-13T07:03:20.045Z,5.66
2022-10-13T07:07:22.084Z,6.12
2022-10-13T07:11:24.649Z,6.62
2022-10-13T07:15:29.700Z,7.12
2022-10-13T07:19:31.655Z,7.45
2022-10-13T07:23:33.641Z,7.77
2022-10-13T07:27:37.621Z,8.15
2022-10-13T07:31:41.846Z,8.55
2022-10-13T07:35:43.727Z,8.96
2022-10-13T07:39:45.542Z,9.34
2022-10-13T07:43:47.614Z,9.65
2022-10-13T07:47:49.696Z,10.00
2022-10-13T07:51:51.988Z,10.31
2022-10-13T07:55:55.093Z,10.60
2022-10-13T07:59:57.182Z,10.86
2022-10-13T08:03:59.065Z,11.09
2022-10-13T08:08:00.949Z,11.40
2022-10-13T08:12:03.442Z,11.68
2022-10-13T08:16:05.537Z,11.91
2022-10-13T08:20:07.881Z,12.13
2022-10-13T08:24:13.401Z,12.36
2022-10-13T08:28:17.468Z,12.58
2022-10-13T08:32:20.886Z,12.75
2022-10-13T08:36:23.484Z,12.80
2022-10-13T08:40:25.631Z,12.97
2022-10-13T08:45:10.789Z,13.16
2022-10-13T08:49:05.465Z,13.33
2022-10-13T08:53:16.111Z,13.46
2022-10-13T08:57:21.994Z,13.61
2022-10-13T09:01:36.106Z,13.72
2022-10-13T09:05:49.615Z,13.77
2022-10-13T09:09:53.050Z,13.83
2022-10-13T09:13:57.512Z,13.81
2022-10-13T09:18:12.641Z,13.77
2022-10-13T09:22:38.742Z,13.81
2022-10-13T09:26:41.855Z,13.92
2022-10-13T09:30:46.643Z,13.99
2022-10-13T09:34:49.285Z,14.06
2022-10-13T09:39:14.192Z,14.11
2022-10-13T09:43:31.762Z,14.18
2022-10-13T09:47:34.138Z,14.26
2022-10-13T09:51:40.469Z,14.32
2022-10-13T09:56:23.251Z,14.34
2022-10-13T10:00:27.537Z,14.33
2022-10-13T10:04:37.374Z,14.32
2022-10-13T10:09:02.664Z,14.32
2022-10-13T10:13:12.535Z,14.40
2022-10-13T10:17:26.520Z,14.51
2022-10-13T10:21:43.149Z,14.58
2022-10-13T10:25:58.805Z,14.50
2022-10-13T10:30:12.604Z,14.48
2022-10-13T10:34:32.523Z,14.41
2022-10-13T10:38:42.312Z,14.37
2022-10-13T10:42:52.353Z,14.46
2022-10-13T10:47:02.439Z,14.56
2022-10-13T10:51:09.736Z,14.67
2022-10-13T10:55:26.151Z,14.73
2022-10-13T10:59:41.219Z,14.76
2022-10-13T11:03:47.179Z,14.88
2022-10-13T11:07:51.913Z,14.98
2022-10-13T11:11:53.901Z,15.06
2022-10-13T11:15:56.088Z,15.17
2022-10-13T11:19:58.982Z,15.24
2022-10-13T11:24:02.255Z,15.15
2022-10-13T11:28:22.661Z,15.03
2022-10-13T11:32:30.272Z,15.00
2022-10-13T11:36:38.959Z,14.82
2022-10-13T11:40:56.435Z,14.74
2022-10-13T11:45:03.838Z,14.80
2022-10-13T11:49:07.451Z,14.88
2022-10-13T11:53:23.924Z,14.87
2022-10-13T11:57:27.780Z,14.84
2022-10-13T12:01:29.787Z,14.90
2022-10-13T12:05:32.361Z,14.94
2022-10-13T12:09:39.402Z,14.95
2022-10-13T12:13:46.184Z,14.94
2022-10-13T12:17:50.180Z,14.98
2022-10-13T12:21:55.202Z,15.02
2022-10-13T12:25:58.414Z,15.04
2022-10-13T12:30:01.761Z,15.11
2022-10-13T12:34:04.363Z,15.13
2022-10-13T12:38:18.972Z,15.09
2022-10-13T12:42:29.098Z,15.09
2022-10-13T12:46:42.553Z,15.14
2022-10-13T12:50:44.491Z,15.23
2022-10-13T12:54:55.737Z,15.32
2022-10-13T12:58:59.200Z,15.32
2022-10-13T13:03:04.067Z,15.23
2022-10-13T13:07:36.598Z,15.19
2022-10-13T13:11:39.237Z,15.18
2022-10-13T13:15:44.212Z,15.24
2022-10-13T13:19:55.214Z,15.31
2022-10-13T13:23:57.067Z,15.35
2022-10-13T13:27:58.932Z,15.32
2022-10-13T13:32:00.747Z,15.33
2022-10-13T13:36:02.595Z,15.33
2022-10-13T13:40:06.317Z,15.32
2022-10-13T13:44:08.205Z,15.29
2022-10-13T13:48:12.575Z,15.19
2022-10-13T13:52:15.172Z,15.08
2022-10-13T13:56:18.641Z,15.04
2022-10-13T14:00:21.225Z,14.93
2022-10-13T14:04:29.564Z,14.88
2022-10-13T14:08:33.902Z,14.87
2022-10-13T14:12:37.275Z,14.87
2022-10-13T14:16:41.077Z,14.86
2022-10-13T14:20:43.377Z,14.80
2022-10-13T14:24:45.419Z,14.71
2022-10-13T14:28:47.529Z,14.60
2022-10-13T14:32:49.443Z,14.48
2022-10-13T14:36:51.418Z,14.39
2022-10-13T14:41:03.896Z,14.27
2022-10-13T14:45:06.333Z,14.16
2022-10-13T14:49:10.417Z,14.06
2022-10-13T14:53:15.996Z,13.94
2022-10-13T14:57:18.233Z,13.80
2022-10-13T15:01:20.672Z,13.65
2022-10-13T15:05:22.639Z,13.46
2022-10-13T15:09:33.493Z,13.32
2022-10-13T15:13:48.764Z,13.17
2022-10-13T15:17:50.631Z,13.00
2022-10-13T15:21:52.908Z,12.82
2022-10-13T15:25:57.993Z,12.66
2022-10-13T15:30:00.228Z,12.52
2022-10-13T15:34:02.109Z,12.37
2022-10-13T15:38:03.909Z,12.21
2022-10-13T15:42:05.784Z,12.05
2022-10-13T15:46:11.806Z,11.89
2022-10-13T15:50:14.711Z,11.75
2022-10-13T15:54:17.315Z,11.61
2022-10-13T15:58:19.193Z,11.46
2022-10-13T16:02:23.045Z,11.31
2022-10-13T16:06:26.260Z,11.15
2022-10-13T16:10:28.125Z,10.98
2022-10-13T16:14:30.106Z,10.78
2022-10-13T16:18:36.017Z,10.54
2022-10-13T16:22:38.100Z,10.41
2022-10-13T16:26:40.397Z,10.35
2022-10-13T16:30:42.765Z,10.23
2022-10-13T16:34:47.455Z,10.04
2022-10-13T16:38:54.446Z,9.87
2022-10-13T16:42:56.227Z,9.69
2022-10-13T16:47:00.112Z,9.55
2022-10-13T16:51:11.850Z,9.39
2022-10-13T16:55:15.246Z,9.22
2022-10-13T16:59:17.423Z,9.14
2022-10-13T17:03:19.340Z,9.09
2022-10-13T17:07:23.219Z,9.01
2022-10-13T17:11:28.308Z,8.87
2022-10-13T17:15:30.183Z,8.68
2022-10-13T17:19:32.204Z,8.45
2022-10-13T17:23:34.444Z,8.27
2022-10-13T17:27:36.984Z,8.12
2022-10-13T17:31:38.914Z,7.93
2022-10-13T17:35:40.866Z,7.77
2022-10-13T17:39:42.933Z,7.66
2022-10-13T17:43:45.040Z,7.52
2022-10-13T17:47:48.764Z,7.46
2022-10-13T17:51:53.131Z,7.34
2022-10-13T17:56:02.762Z,7.21
2022-10-13T18:00:06.018Z,7.09
2022-10-13T18:04:17.327Z,7.02
2022-10-13T18:08:20.024Z,6.99
2022-10-13T18:12:21.907Z,6.91
2022-10-13T18:16:24.052Z,6.86
2022-10-13T18:20:26.597Z,6.84
2022-10-13T18:24:28.533Z,6.83
2022-10-13T18:28:32.278Z,6.84
2022-10-13T18:32:34.266Z,6.83
2022-10-13T18:36:38.448Z,6.77
2022-10-13T18:40:43.486Z,6.69
2022-10-13T18:44:45.541Z,6.59
2022-10-13T18:48:47.479Z,6.50
2022-10-13T18:52:49.332Z,6.39
2022-10-13T18:56:52.720Z,6.27
2022-10-13T19:00:59.860Z,6.17
2022-10-13T19:05:02.026Z,6.10
2022-10-13T19:09:07.306Z,6.02
2022-10-13T19:13:11.135Z,5.93
2022-10-13T19:17:13.213Z,5.84
2022-10-13T19:21:16.244Z,5.81
2022-10-13T19:25:18.238Z,5.76
2022-10-13T19:29:20.296Z,5.69
2022-10-13T19:33:22.209Z,5.66
2022-10-13T19:37:24.150Z,5.66
2022-10-13T19:41:28.652Z,5.63
2022-10-13T19:45:31.289Z,5.55
2022-10-13T19:49:33.194Z,5.48
2022-10-13T19:53:36.495Z,5.42
2022-10-13T19:57:38.651Z,5.34
2022-10-13T20:01:40.631Z,5.30
2022-10-13T20:05:47.404Z,5.30
2022-10-13T20:09:49.267Z,5.35
2022-10-13T20:13:52.371Z,5.39
2022-10-13T20:17:54.231Z,5.37
2022-10-13T20:21:56.095Z,5.37
2022-10-13T20:26:06.460Z,5.36
2022-10-13T20:30:10.177Z,5.36
2022-10-13T20:34:12.140Z,5.35
2022-10-13T20:38:14.321Z,5.35
2022-10-13T20:42:16.232Z,5.36
2022-10-13T20:46:21.162Z,5.38
2022-10-13T20:50:23.014Z,5.38
2022-10-13T20:54:24.973Z,5.36
2022-10-13T20:58:30.371Z,5.34
2022-10-13T21:02:32.909Z,5.36
2022-10-13T21:06:36.010Z,5.36
2022-10-13T21:10:37.979Z,5.35
2022-10-13T21:14:40.163Z,5.32
2022-10-13T21:18:51.346Z,5.30
2022-10-13T21:22:54.313Z,5.30
2022-10-13T21:26:56.234Z,5.34
2022-10-13T21:31:00.129Z,5.34
2022-10-13T21:35:02.282Z,5.32
2022-10-13T21:39:05.615Z,5.28
2022-10-13T21:43:08.037Z,5.23
2022-10-13T21:47:09.919Z,5.19
2022-10-13T21:51:15.312Z,5.18
2022-10-13T21:55:17.168Z,5.17
2022-10-13T21:59:19.958Z,5.22
2022-10-13T22:03:21.792Z,5.27
2022-10-13T22:07:23.721Z,5.27
2022-10-13T22:11:28.685Z,5.27
2022-10-13T22:15:33.992Z,5.29
2022-10-13T22:19:36.489Z,5.33
2022-10-13T22:23:38.434Z,5.35
2022-10-13T22:27:40.277Z,5.34
2022-10-13T22:31:42.344Z,5.28
2022-10-13T22:35:46.297Z,5.24
2022-10-13T22:39:49.077Z,5.23
2022-10-13T22:43:55.945Z,5.19
2022-10-13T22:47:57.955Z,5.15
2022-10-13T22:51:59.785Z,5.06
2022-10-13T22:56:05.680Z,4.99
2022-10-13T23:00:09.770Z,4.93
2022-10-13T23:04:13.585Z,4.88
2022-10-13T23:08:15.555Z,4.83
2022-10-13T23:12:17.956Z,4.81
2022-10-13T23:16:23.105Z,4.77
2022-10-13T23:20:25.079Z,4.70
2022-10-13T23:24:27.094Z,4.60
2022-10-13T23:28:30.129Z,4.54
2022-10-13T23:32:32.252Z,4.52
2022-10-13T23:36:34.203Z,4.53
2022-10-13T23:40:36.312Z,4.51
2022-10-13T23:44:38.690Z,4.48
2022-10-13T23:48:41.097Z,4.42
2022-10-13T23:52:43.001Z,4.38
2022-10-13T23:56:44.863Z,4.38
